createdAt,value
2023-03-01T00:00:14.909Z,-3.87
2023-03-01T00:02:44.359Z,-3.88
2023-03-01T00:05:13.785Z,-3.89
2023-03-01T00:07:42.555Z,-3.91
2023-03-01T00:10:13.070Z,-3.92
2023-03-01T00:12:42.400Z,-3.91
2023-03-01T00:15:11.443Z,-3.91
2023-03-01T00:17:40.539Z,-3.92
2023-03-01T00:20:11.428Z,-3.92
2023-03-01T00:22:40.891Z,-3.91
2023-03-01T00:25:09.508Z,-3.92
2023-03-01T00:27:37.904Z,-3.94
2023-03-01T00:30:07.829Z,-3.96
2023-03-01T00:32:36.379Z,-3.99
2023-03-01T00:35:05.165Z,-4.01
2023-03-01T00:37:33.744Z,-4.01
2023-03-01T00:40:02.164Z,-4.02
2023-03-01T00:42:33.025Z,-4.02
2023-03-01T00:45:02.154Z,-4.03
2023-03-01T00:47:30.792Z,-4.04
2023-03-01T00:49:59.469Z,-4.07
2023-03-01T00:52:29.575Z,-4.08
2023-03-01T00:54:59.072Z,-4.11
2023-03-01T00:57:27.741Z,-4.13
2023-03-01T00:59:56.138Z,-4.13
2023-03-01T01:02:24.781Z,-4.13
2023-03-01T01:04:53.291Z,-4.13
2023-03-01T01:07:22.115Z,-4.14
2023-03-01T01:09:50.535Z,-4.14
2023-03-01T01:12:22.501Z,-4.16
2023-03-01T01:14:50.949Z,-4.19
2023-03-01T01:17:19.303Z,-4.21
2023-03-01T01:19:47.703Z,-4.22
2023-03-01T01:22:16.206Z,-4.23
2023-03-01T01:24:45.938Z,-4.25
2023-03-01T01:27:14.416Z,-4.26
2023-03-01T01:29:43.355Z,-4.27
2023-03-01T01:32:11.987Z,-4.27
2023-03-01T01:34:40.402Z,-4.27
2023-03-01T01:37:09.094Z,-4.27
2023-03-01T01:39:38.723Z,-4.28
2023-03-01T01:42:07.689Z,-4.28
2023-03-01T01:44:36.785Z,-4.28
2023-03-01T01:47:18.465Z,-4.28
2023-03-01T01:49:56.520Z,-4.26
2023-03-01T01:52:36.461Z,-4.27
2023-03-01T01:55:08.122Z,-4.29
2023-03-01T01:57:44.581Z,-4.29
2023-03-01T02:00:22.530Z,-4.28
2023-03-01T02:02:56.100Z,-4.28
2023-03-01T02:05:56.745Z,-4.29
2023-03-01T02:08:28.298Z,-4.30
2023-03-01T02:11:05.422Z,-4.29
2023-03-01T02:13:39.740Z,-4.30
2023-03-01T02:16:14.338Z,-4.31
2023-03-01T02:18:43.092Z,-4.30
2023-03-01T02:21:21.453Z,-4.28
2023-03-01T02:23:56.845Z,-4.26
2023-03-01T02:26:54.078Z,-4.25
2023-03-01T02:29:23.743Z,-4.25
2023-03-01T02:31:52.703Z,-4.26
2023-03-01T02:34:26.447Z,-4.28
2023-03-01T02:36:58.444Z,-4.31
2023-03-01T02:39:30.376Z,-4.34
2023-03-01T02:42:00.160Z,-4.35
2023-03-01T02:44:30.045Z,-4.36
2023-03-01T02:46:58.855Z,-4.38
2023-03-01T02:49:30.162Z,-4.40
2023-03-01T02:52:17.537Z,-4.43
2023-03-01T02:54:48.372Z,-4.46
2023-03-01T02:57:17.689Z,-4.49
2023-03-01T02:59:46.379Z,-4.52
2023-03-01T03:02:38.103Z,-4.57
2023-03-01T03:05:21.748Z,-4.62
2023-03-01T03:07:53.643Z,-4.67
2023-03-01T03:10:25.975Z,-4.72
2023-03-01T03:13:00.379Z,-4.76
2023-03-01T03:15:30.249Z,-4.81
2023-03-01T03:17:59.512Z,-4.84
2023-03-01T03:20:29.384Z,-4.86
2023-03-01T03:22:59.556Z,-4.87
2023-03-01T03:25:29.352Z,-4.88
2023-03-01T03:27:59.158Z,-4.88
2023-03-01T03:30:30.188Z,-4.87
2023-03-01T03:32:59.341Z,-4.87
2023-03-01T03:35:31.440Z,-4.87
2023-03-01T03:38:04.056Z,-4.88
2023-03-01T03:40:41.262Z,-4.89
2023-03-01T03:43:15.754Z,-4.92
2023-03-01T03:45:48.855Z,-4.93
2023-03-01T03:48:18.400Z,-4.95
2023-03-01T03:50:52.192Z,-4.97
2023-03-01T03:53:21.409Z,-4.99
2023-03-01T03:55:53.043Z,-5.02
2023-03-01T03:58:23.333Z,-5.02
2023-03-01T04:00:59.830Z,-5.03
2023-03-01T04:03:30.684Z,-5.04
2023-03-01T04:06:01.013Z,-5.05
2023-03-01T04:08:30.094Z,-5.06
2023-03-01T04:11:01.625Z,-5.06
2023-03-01T04:13:35.870Z,-5.05
2023-03-01T04:16:04.808Z,-5.06
2023-03-01T04:18:33.267Z,-5.06
2023-03-01T04:21:02.168Z,-5.07
2023-03-01T04:23:31.077Z,-5.08
2023-03-01T04:25:59.938Z,-5.09
2023-03-01T04:28:35.044Z,-5.09
2023-03-01T04:31:15.056Z,-5.10
2023-03-01T04:33:54.600Z,-5.10
2023-03-01T04:36:28.834Z,-5.09
2023-03-01T04:38:58.329Z,-5.09
2023-03-01T04:41:28.443Z,-5.07
2023-03-01T04:44:01.650Z,-5.05
2023-03-01T04:46:30.777Z,-5.03
2023-03-01T04:48:59.464Z,-5.01
2023-03-01T04:51:28.606Z,-4.98
2023-03-01T04:54:01.683Z,-4.96
2023-03-01T04:56:32.666Z,-4.92
2023-03-01T04:59:01.844Z,-4.88
2023-03-01T05:01:30.271Z,-4.85
2023-03-01T05:04:04.459Z,-4.79
2023-03-01T05:06:34.370Z,-4.71
2023-03-01T05:09:04.825Z,-4.64
2023-03-01T05:11:37.054Z,-4.54
2023-03-01T05:14:06.850Z,-4.45
2023-03-01T05:16:36.508Z,-4.35
2023-03-01T05:19:12.949Z,-4.27
2023-03-01T05:22:01.351Z,-4.21
2023-03-01T05:24:33.847Z,-4.13
2023-03-01T05:27:03.001Z,-4.07
2023-03-01T05:29:37.278Z,-4.03
2023-03-01T05:32:06.281Z,-3.99
2023-03-01T05:34:36.689Z,-3.96
2023-03-01T05:37:05.679Z,-3.91
2023-03-01T05:39:34.298Z,-3.87
2023-03-01T05:42:03.263Z,-3.81
2023-03-01T05:44:32.165Z,-3.75
2023-03-01T05:47:00.698Z,-3.69
2023-03-01T05:49:30.197Z,-3.62
2023-03-01T05:51:58.647Z,-3.55
2023-03-01T05:54:27.641Z,-3.49
2023-03-01T05:56:56.100Z,-3.41
2023-03-01T05:59:24.680Z,-3.35
2023-03-01T06:01:54.860Z,-3.30
2023-03-01T06:04:24.262Z,-3.20
2023-03-01T06:06:53.114Z,-3.13
2023-03-01T06:09:27.441Z,-3.04
2023-03-01T06:11:55.907Z,-2.94
2023-03-01T06:14:24.587Z,-2.84
2023-03-01T06:16:53.320Z,-2.75
2023-03-01T06:19:22.426Z,-2.69
2023-03-01T06:21:51.285Z,-2.61
2023-03-01T06:24:19.842Z,-2.53
2023-03-01T06:26:48.421Z,-2.42
2023-03-01T06:29:17.134Z,-2.36
2023-03-01T06:31:47.034Z,-2.33
2023-03-01T06:34:15.909Z,-2.22
2023-03-01T06:36:44.855Z,-2.11
2023-03-01T06:39:15.709Z,-2.01
2023-03-01T06:41:45.127Z,-1.93
2023-03-01T06:44:13.723Z,-1.85
2023-03-01T06:46:43.969Z,-1.74
2023-03-01T06:49:12.598Z,-1.62
2023-03-01T06:51:43.373Z,-1.46
2023-03-01T06:54:12.151Z,-1.32
2023-03-01T06:56:41.412Z,-1.22
2023-03-01T06:59:10.324Z,-1.10
2023-03-01T07:01:42.492Z,-1.00
2023-03-01T07:04:12.092Z,-0.87
2023-03-01T07:06:40.759Z,-0.76
2023-03-01T07:09:11.089Z,-0.67
2023-03-01T07:11:39.765Z,-0.50
2023-03-01T07:14:17.192Z,-0.33
2023-03-01T07:16:47.356Z,-0.26
2023-03-01T07:19:19.262Z,-0.24
2023-03-01T07:21:48.570Z,-0.13
2023-03-01T07:24:17.343Z,-0.01
2023-03-01T07:26:53.324Z,0.13
2023-03-01T07:29:21.996Z,0.22
2023-03-01T07:31:50.559Z,0.33
2023-03-01T07:34:21.169Z,0.50
2023-03-01T07:36:50.770Z,0.66
2023-03-01T07:39:20.022Z,0.77
2023-03-01T07:41:49.103Z,0.87
2023-03-01T07:44:19.672Z,0.95
2023-03-01T07:46:49.400Z,1.06
2023-03-01T07:49:18.750Z,1.15
2023-03-01T07:51:48.873Z,1.27
2023-03-01T07:54:17.628Z,1.37
2023-03-01T07:56:46.008Z,1.48
2023-03-01T07:59:15.491Z,1.59
2023-03-01T08:01:44.648Z,1.81
2023-03-01T08:04:13.272Z,1.95
2023-03-01T08:06:44.440Z,1.95
2023-03-01T08:09:14.451Z,1.98
2023-03-01T08:11:47.018Z,1.97
2023-03-01T08:14:35.503Z,2.03
2023-03-01T08:17:05.352Z,2.13
2023-03-01T08:19:35.901Z,2.12
2023-03-01T08:22:05.294Z,2.16
2023-03-01T08:24:34.232Z,2.32
2023-03-01T08:27:04.074Z,2.54
2023-03-01T08:29:35.566Z,2.67
2023-03-01T08:32:04.380Z,2.76
2023-03-01T08:34:33.634Z,2.85
2023-03-01T08:37:03.079Z,2.86
2023-03-01T08:39:31.838Z,2.80
2023-03-01T08:42:02.169Z,2.87
2023-03-01T08:44:31.294Z,3.00
2023-03-01T08:47:01.253Z,3.19
2023-03-01T08:49:29.887Z,3.28
2023-03-01T08:51:59.216Z,3.19
2023-03-01T08:54:28.206Z,3.08
2023-03-01T08:56:56.708Z,3.12
2023-03-01T08:59:26.419Z,3.24
2023-03-01T09:01:54.865Z,3.45
2023-03-01T09:04:23.479Z,3.40
2023-03-01T09:06:52.599Z,3.39
2023-03-01T09:09:21.851Z,3.58
2023-03-01T09:11:51.435Z,3.83
2023-03-01T09:14:20.117Z,3.97
2023-03-01T09:16:50.373Z,3.98
2023-03-01T09:19:20.056Z,3.93
2023-03-01T09:21:57.088Z,3.84
2023-03-01T09:24:26.729Z,3.73
2023-03-01T09:26:57.578Z,3.71
2023-03-01T09:29:27.172Z,3.79
2023-03-01T09:31:56.601Z,3.89
2023-03-01T09:34:25.706Z,3.98
2023-03-01T09:36:54.762Z,4.04
2023-03-01T09:39:23.535Z,4.04
2023-03-01T09:42:05.752Z,4.10
2023-03-01T09:45:02.438Z,4.27
2023-03-01T09:47:32.556Z,4.37
2023-03-01T09:50:18.299Z,4.32
2023-03-01T09:53:07.839Z,4.21
2023-03-01T09:55:47.768Z,4.15
2023-03-01T09:58:32.467Z,4.10
2023-03-01T10:01:18.535Z,4.22
2023-03-01T10:04:12.465Z,4.42
2023-03-01T10:06:57.158Z,4.76
2023-03-01T10:09:34.672Z,4.90
2023-03-01T10:12:03.909Z,4.83
2023-03-01T10:14:51.239Z,4.80
2023-03-01T10:18:01.619Z,4.81
2023-03-01T10:20:39.498Z,4.93
2023-03-01T10:23:09.686Z,5.12
2023-03-01T10:25:42.449Z,5.32
2023-03-01T10:28:19.065Z,5.49
2023-03-01T10:30:53.547Z,5.67
2023-03-01T10:33:33.001Z,5.71
2023-03-01T10:36:02.818Z,5.76
2023-03-01T10:38:34.434Z,5.86
2023-03-01T10:41:07.714Z,5.83
2023-03-01T10:43:52.267Z,5.72
2023-03-01T10:46:40.941Z,5.51
2023-03-01T10:49:23.593Z,5.38
2023-03-01T10:51:53.550Z,5.35
2023-03-01T10:54:25.774Z,5.33
2023-03-01T10:56:56.819Z,5.30
2023-03-01T10:59:39.332Z,5.48
2023-03-01T11:02:23.538Z,5.63
2023-03-01T11:05:04.175Z,5.78
2023-03-01T11:07:34.780Z,5.75
2023-03-01T11:10:19.244Z,5.57
2023-03-01T11:12:49.155Z,5.61
2023-03-01T11:15:28.601Z,5.66
2023-03-01T11:18:09.055Z,5.60
2023-03-01T11:20:41.584Z,5.54
2023-03-01T11:23:12.688Z,5.51
2023-03-01T11:25:49.584Z,5.53
2023-03-01T11:28:42.651Z,5.49
2023-03-01T11:32:08.374Z,5.46
2023-03-01T11:34:40.786Z,5.41
2023-03-01T11:37:15.167Z,5.24
2023-03-01T11:40:26.540Z,5.00
2023-03-01T11:43:13.505Z,4.80
2023-03-01T11:45:51.981Z,4.67
2023-03-01T11:48:49.006Z,4.44
2023-03-01T11:51:56.931Z,4.26
2023-03-01T11:54:41.587Z,4.25
2023-03-01T11:57:44.024Z,4.32
2023-03-01T12:00:29.139Z,4.47
2023-03-01T12:03:09.491Z,4.61
2023-03-01T12:05:47.064Z,4.75
2023-03-01T12:08:19.482Z,4.75
2023-03-01T12:11:04.357Z,4.68
2023-03-01T12:13:56.010Z,4.63
2023-03-01T12:16:38.863Z,4.60
2023-03-01T12:19:15.109Z,4.52
2023-03-01T12:22:15.122Z,4.35
2023-03-01T12:24:47.569Z,4.26
2023-03-01T12:27:20.987Z,4.17
2023-03-01T12:30:17.675Z,4.08
2023-03-01T12:33:34.684Z,4.03
2023-03-01T12:36:37.251Z,4.01
2023-03-01T12:39:11.280Z,4.04
2023-03-01T12:42:04.209Z,4.05
2023-03-01T12:48:42.462Z,3.89
2023-03-01T12:51:13.698Z,3.78
2023-03-01T12:53:45.346Z,3.69
2023-03-01T12:56:23.221Z,3.57
2023-03-01T12:59:31.460Z,3.52
2023-03-01T13:02:38.175Z,3.44
2023-03-01T13:05:30.338Z,3.29
2023-03-01T13:07:58.737Z,3.17
2023-03-01T13:10:59.864Z,3.05
2023-03-01T13:13:30.032Z,2.88
2023-03-01T13:15:58.805Z,2.78
2023-03-01T13:18:31.046Z,2.67
2023-03-01T13:21:00.936Z,2.55
2023-03-01T13:23:40.317Z,2.42
2023-03-01T13:26:16.886Z,2.34
2023-03-01T13:28:47.604Z,2.26
2023-03-01T13:31:16.169Z,2.24
2023-03-01T13:33:48.307Z,2.22
2023-03-01T13:36:43.816Z,2.19
2023-03-01T13:39:33.924Z,2.15
2023-03-01T13:42:02.473Z,2.12
2023-03-01T13:44:37.493Z,2.09
2023-03-01T13:47:15.838Z,2.06
2023-03-01T13:49:52.106Z,2.02
2023-03-01T13:52:46.520Z,1.96
2023-03-01T13:55:19.774Z,1.96
2023-03-01T13:57:54.957Z,1.95
2023-03-01T14:00:27.159Z,1.85
2023-03-01T14:03:06.271Z,1.75
2023-03-01T14:05:37.266Z,1.73
2023-03-01T14:08:06.804Z,1.72
2023-03-01T14:10:51.354Z,1.70
2023-03-01T14:13:54.180Z,1.67
2023-03-01T14:16:32.294Z,1.63
2023-03-01T14:19:32.730Z,1.57
2023-03-01T14:22:28.635Z,1.47
2023-03-01T14:25:07.071Z,1.41
2023-03-01T14:27:43.283Z,1.40
2023-03-01T14:30:23.213Z,1.38
2023-03-01T14:32:57.325Z,1.32
2023-03-01T14:35:30.530Z,1.27
2023-03-01T14:37:59.632Z,1.23
2023-03-01T14:40:34.081Z,1.17
2023-03-01T14:43:02.817Z,1.10
2023-03-01T14:45:34.535Z,1.05
2023-03-01T14:48:04.620Z,0.99
2023-03-01T14:50:35.829Z,0.95
2023-03-01T14:53:09.283Z,0.93
2023-03-01T14:55:39.406Z,0.89
2023-03-01T14:58:13.089Z,0.87
2023-03-01T15:00:57.167Z,0.85
2023-03-01T15:03:40.386Z,0.82
2023-03-01T15:06:08.837Z,0.79
2023-03-01T15:08:37.569Z,0.78
2023-03-01T15:11:31.753Z,0.74
2023-03-01T15:14:00.970Z,0.71
2023-03-01T15:16:33.961Z,0.68
2023-03-01T15:19:05.832Z,0.66
2023-03-01T15:21:38.635Z,0.62
2023-03-01T15:24:20.634Z,0.59
2023-03-01T15:26:56.542Z,0.55
2023-03-01T15:29:31.095Z,0.52
2023-03-01T15:32:05.382Z,0.48
2023-03-01T15:34:35.302Z,0.45
2023-03-01T15:37:06.998Z,0.40
2023-03-01T15:39:46.668Z,0.38
2023-03-01T15:42:35.188Z,0.38
2023-03-01T15:45:21.894Z,0.38
2023-03-01T15:47:54.119Z,0.36
2023-03-01T15:50:29.166Z,0.34
2023-03-01T15:53:00.753Z,0.34
2023-03-01T15:55:30.816Z,0.32
2023-03-01T15:58:08.022Z,0.29
2023-03-01T16:00:40.928Z,0.28
2023-03-01T16:03:13.263Z,0.26
2023-03-01T16:05:42.130Z,0.27
2023-03-01T16:08:10.475Z,0.27
2023-03-01T16:10:44.985Z,0.27
2023-03-01T16:13:14.947Z,0.28
2023-03-01T16:15:45.072Z,0.27
2023-03-01T16:18:15.807Z,0.26
2023-03-01T16:20:44.191Z,0.23
2023-03-01T16:23:17.995Z,0.20
2023-03-01T16:25:47.465Z,0.15
2023-03-01T16:28:15.930Z,0.14
2023-03-01T16:30:52.055Z,0.13
2023-03-01T16:33:29.937Z,0.15
2023-03-01T16:36:11.394Z,0.15
2023-03-01T16:38:40.102Z,0.14
2023-03-01T16:41:13.375Z,0.12
2023-03-01T16:43:42.444Z,0.09
2023-03-01T16:46:15.420Z,0.07
2023-03-01T16:48:44.154Z,0.06
2023-03-01T16:51:12.703Z,0.04
2023-03-01T16:53:47.873Z,0.02
2023-03-01T16:56:19.640Z,0.00
2023-03-01T16:58:48.345Z,-0.03
2023-03-01T17:01:25.669Z,-0.06
2023-03-01T17:03:54.473Z,-0.09
2023-03-01T17:06:24.801Z,-0.11
2023-03-01T17:08:53.714Z,-0.14
2023-03-01T17:11:22.175Z,-0.15
2023-03-01T17:13:56.826Z,-0.17
2023-03-01T17:16:25.552Z,-0.19
2023-03-01T17:18:54.010Z,-0.20
2023-03-01T17:21:22.550Z,-0.21
2023-03-01T17:23:56.448Z,-0.22
2023-03-01T17:26:25.504Z,-0.23
2023-03-01T17:28:54.210Z,-0.24
2023-03-01T17:31:23.140Z,-0.27
2023-03-01T17:33:52.516Z,-0.28
2023-03-01T17:36:21.092Z,-0.30
2023-03-01T17:38:52.192Z,-0.33
2023-03-01T17:41:22.193Z,-0.36
2023-03-01T17:43:50.609Z,-0.38
2023-03-01T17:46:19.651Z,-0.39
2023-03-01T17:48:50.021Z,-0.38
2023-03-01T17:51:38.570Z,-0.35
2023-03-01T17:54:07.039Z,-0.33
2023-03-01T17:56:39.019Z,-0.29
2023-03-01T17:59:08.233Z,-0.24
2023-03-01T18:01:39.002Z,-0.21
2023-03-01T18:04:07.456Z,-0.17
2023-03-01T18:06:36.213Z,-0.16
2023-03-01T18:09:04.890Z,-0.13
2023-03-01T18:11:35.850Z,-0.11
2023-03-01T18:14:06.021Z,-0.07
2023-03-01T18:16:35.012Z,-0.04
2023-03-01T18:19:10.765Z,-0.02
2023-03-01T18:21:39.970Z,0.01
2023-03-01T18:24:08.410Z,0.02
2023-03-01T18:26:39.928Z,0.04
2023-03-01T18:29:10.765Z,0.04
2023-03-01T18:31:42.180Z,0.05
2023-03-01T18:34:11.925Z,0.06
2023-03-01T18:37:00.405Z,0.06
2023-03-01T18:39:34.198Z,0.07
2023-03-01T18:42:04.172Z,0.08
2023-03-01T18:44:33.810Z,0.07
2023-03-01T18:47:02.521Z,0.05
2023-03-01T18:49:33.123Z,0.02
2023-03-01T18:52:01.777Z,-0.01
2023-03-01T18:54:30.386Z,-0.02
2023-03-01T18:56:58.939Z,-0.01
2023-03-01T18:59:27.364Z,-0.01
2023-03-01T19:01:56.333Z,-0.02
2023-03-01T19:04:24.795Z,-0.03
2023-03-01T19:06:54.364Z,-0.03
2023-03-01T19:09:26.350Z,-0.04
2023-03-01T19:11:59.016Z,-0.05
2023-03-01T19:14:27.684Z,-0.07
2023-03-01T19:16:56.871Z,-0.08
2023-03-01T19:19:25.402Z,-0.08
2023-03-01T19:22:05.250Z,-0.10
2023-03-01T19:24:36.778Z,-0.12
2023-03-01T19:27:05.189Z,-0.12
2023-03-01T19:29:36.216Z,-0.13
2023-03-01T19:32:05.126Z,-0.15
2023-03-01T19:34:33.685Z,-0.17
2023-03-01T19:37:02.528Z,-0.17
2023-03-01T19:39:30.981Z,-0.19
2023-03-01T19:41:59.402Z,-0.19
2023-03-01T19:44:28.792Z,-0.20
2023-03-01T19:46:58.795Z,-0.19
2023-03-01T19:49:27.337Z,-0.18
2023-03-01T19:51:56.302Z,-0.17
2023-03-01T19:54:25.028Z,-0.16
2023-03-01T19:56:53.544Z,-0.15
2023-03-01T19:59:24.886Z,-0.15
2023-03-01T20:01:53.518Z,-0.17
2023-03-01T20:04:22.338Z,-0.18
2023-03-01T20:06:52.330Z,-0.20
2023-03-01T20:09:22.575Z,-0.20
2023-03-01T20:11:52.325Z,-0.20
2023-03-01T20:14:27.535Z,-0.20
2023-03-01T20:16:56.183Z,-0.20
2023-03-01T20:19:24.771Z,-0.20
2023-03-01T20:21:53.933Z,-0.19
2023-03-01T20:24:23.405Z,-0.18
2023-03-01T20:26:52.004Z,-0.17
2023-03-01T20:29:22.210Z,-0.17
2023-03-01T20:31:50.770Z,-0.17
2023-03-01T20:34:19.464Z,-0.18
2023-03-01T20:36:47.866Z,-0.20
2023-03-01T20:39:19.166Z,-0.22
2023-03-01T20:41:47.542Z,-0.23
2023-03-01T20:44:18.270Z,-0.24
2023-03-01T20:46:47.217Z,-0.25
2023-03-01T20:49:15.665Z,-0.25
2023-03-01T20:51:44.591Z,-0.25
2023-03-01T20:54:14.384Z,-0.25
2023-03-01T20:56:43.695Z,-0.27
2023-03-01T20:59:12.316Z,-0.28
2023-03-01T21:01:40.786Z,-0.30
2023-03-01T21:04:10.200Z,-0.32
2023-03-01T21:06:40.129Z,-0.34
2023-03-01T21:09:08.557Z,-0.36
2023-03-01T21:11:41.346Z,-0.37
2023-03-01T21:14:13.197Z,-0.37
2023-03-01T21:16:45.977Z,-0.39
2023-03-01T21:19:15.984Z,-0.40
2023-03-01T21:21:44.861Z,-0.41
2023-03-01T21:24:15.325Z,-0.41
2023-03-01T21:26:45.242Z,-0.44
2023-03-01T21:29:13.650Z,-0.46
2023-03-01T21:31:42.736Z,-0.48
2023-03-01T21:34:14.186Z,-0.49
2023-03-01T21:36:43.672Z,-0.51
2023-03-01T21:39:12.972Z,-0.52
2023-03-01T21:41:41.413Z,-0.53
2023-03-01T21:44:09.956Z,-0.55
2023-03-01T21:46:39.304Z,-0.55
2023-03-01T21:49:10.412Z,-0.57
2023-03-01T21:51:38.928Z,-0.59
2023-03-01T21:54:12.515Z,-0.63
2023-03-01T21:56:41.448Z,-0.68
2023-03-01T21:59:19.311Z,-0.73
2023-03-01T22:01:48.265Z,-0.78
2023-03-01T22:04:17.015Z,-0.81
2023-03-01T22:06:46.546Z,-0.84
2023-03-01T22:09:19.917Z,-0.86
2023-03-01T22:11:51.762Z,-0.88
2023-03-01T22:14:21.578Z,-0.90
2023-03-01T22:16:51.920Z,-0.91
2023-03-01T22:19:21.430Z,-0.93
2023-03-01T22:21:51.414Z,-0.92
2023-03-01T22:24:23.481Z,-0.92
2023-03-01T22:26:52.388Z,-0.92
2023-03-01T22:29:27.085Z,-0.94
2023-03-01T22:31:56.035Z,-0.97
2023-03-01T22:34:24.623Z,-1.00
2023-03-01T22:36:53.404Z,-1.02
2023-03-01T22:39:22.201Z,-1.05
2023-03-01T22:41:51.469Z,-1.06
2023-03-01T22:44:22.428Z,-1.06
2023-03-01T22:46:51.659Z,-1.04
2023-03-01T22:49:20.249Z,-1.02
2023-03-01T22:51:48.865Z,-1.00
2023-03-01T22:54:18.110Z,-0.96
2023-03-01T22:56:46.765Z,-0.93
2023-03-01T22:59:23.334Z,-0.90
2023-03-01T23:01:52.566Z,-0.88
2023-03-01T23:04:21.675Z,-0.88
2023-03-01T23:06:50.838Z,-0.88
2023-03-01T23:09:22.950Z,-0.88
2023-03-01T23:11:52.309Z,-0.89
2023-03-01T23:14:21.737Z,-0.88
2023-03-01T23:16:50.411Z,-0.88
2023-03-01T23:19:19.257Z,-0.86
2023-03-01T23:21:51.777Z,-0.86
2023-03-01T23:24:22.280Z,-0.86
2023-03-01T23:26:53.931Z,-0.88
2023-03-01T23:29:22.577Z,-0.92
2023-03-01T23:31:51.275Z,-0.97
2023-03-01T23:34:21.971Z,-1.01
2023-03-01T23:36:52.629Z,-1.03
2023-03-01T23:39:23.359Z,-1.06
2023-03-01T23:41:51.946Z,-1.09
2023-03-01T23:44:22.300Z,-1.10
2023-03-01T23:46:51.177Z,-1.12
2023-03-01T23:49:22.165Z,-1.12
2023-03-01T23:51:51.447Z,-1.14
2023-03-01T23:54:21.746Z,-1.17
2023-03-01T23:56:50.411Z,-1.21
2023-03-01T23:59:23.266Z,-1.25
